Time,TemperatureF,DewpointF,PressureIn,WindDirection,WindDirectionDegrees,WindSpeedMPH,WindSpeedGustMPH,Humidity,HourlyPrecipIn,Conditions,Clouds,dailyrainin,SoftwareType,DateUTC
2013-03-17 00:08:00,24.0,11.0,29.88,North,360,0.0,0.0,57,0.00,,,0.00,weatherlink.com 1.10,2013-03-17 04:08:00,
2013-03-17 00:23:00,23.6,11.0,29.88,North,359,0.0,0.0,60,0.00,,,0.00,weatherlink.com 1.10,2013-03-17 04:23:00,
2013-03-17 00:38:00,23.3,10.0,29.88,North,360,0.0,1.0,57,0.00,,,0.00,weatherlink.com 1.10,2013-03-17 04:38:00,
2013-03-17 00:53:00,23.0,11.0,29.87,North,360,0.0,1.0,60,0.00,,,0.00,weatherlink.com 1.10,2013-03-17 04:53:00,
2013-03-17 01:09:00,22.7,10.0,29.87,North,359,0.0,1.0,58,0.00,,,0.00,weatherlink.com 1.10,2013-03-17 05:09:00,
2013-03-17 01:24:00,22.3,9.0,29.87,North,360,0.0,1.0,58,0.00,,,0.00,weatherlink.com 1.10,2013-03-17 05:24:00,
2013-03-17 01:39:00,22.4,10.0,29.88,NNE,12,0.0,1.0,58,0.00,,,0.00,weatherlink.com 1.10,2013-03-17 05:39:00,
2013-03-17 01:54:00,22.3,12.0,29.88,NNE,13,0.0,1.0,66,0.00,,,0.00,weatherlink.com 1.10,2013-03-17 05:54:00,
2013-03-17 02:09:00,21.9,11.0,29.88,North,351,0.0,1.0,63,0.00,,,0.00,weatherlink.com 1.10,2013-03-17 06:09:00,
2013-03-17 02:24:00,22.5,10.0,29.88,North,357,0.0,1.0,60,0.00,,,0.00,weatherlink.com 1.10,2013-03-17 06:24:00,
2013-03-17 02:39:00,22.1,11.0,29.88,NW,326,0.0,1.0,63,0.00,,,0.00,weatherlink.com 1.10,2013-03-17 06:39:00,
2013-03-17 02:54:00,21.2,12.0,29.88,NW,326,0.0,0.0,67,0.00,,,0.00,weatherlink.com 1.10,2013-03-17 06:54:00,
2013-03-17 03:09:00,20.4,11.0,29.88,NW,326,0.0,0.0,68,0.00,,,0.00,weatherlink.com 1.10,2013-03-17 07:09:00,
2013-03-17 03:24:00,19.6,11.0,29.89,NW,326,0.0,1.0,70,0.00,,,0.00,weatherlink.com 1.10,2013-03-17 07:24:00,
2013-03-17 03:39:00,20.0,11.0,29.89,NW,326,1.0,1.0,67,0.00,,,0.00,weatherlink.com 1.10,2013-03-17 07:39:00,
2013-03-17 03:54:00,20.6,11.0,29.90,NW,326,0.0,1.0,66,0.00,,,0.00,weatherlink.com 1.10,2013-03-17 07:54:00,
2013-03-17 04:09:00,20.5,11.0,29.90,NW,326,0.0,1.0,66,0.00,,,0.00,weatherlink.com 1.10,2013-03-17 08:09:00,
2013-03-17 04:24:00,20.2,12.0,29.91,NW,326,0.0,1.0,70,0.00,,,0.00,weatherlink.com 1.10,2013-03-17 08:24:00,
2013-03-17 04:39:00,20.2,12.0,29.90,NNE,15,0.0,0.0,70,0.00,,,0.00,weatherlink.com 1.10,2013-03-17 08:39:00,
2013-03-17 04:54:00,19.6,11.0,29.91,NNE,15,0.0,0.0,70,0.00,,,0.00,weatherlink.com 1.10,2013-03-17 08:54:00,
2013-03-17 05:09:00,19.1,11.0,29.91,NNE,15,0.0,1.0,71,0.00,,,0.00,weatherlink.com 1.10,2013-03-17 09:09:00,
2013-03-17 05:24:00,19.4,12.0,29.91,NNE,22,1.0,1.0,74,0.00,,,0.00,weatherlink.com 1.10,2013-03-17 09:24:00,
2013-03-17 05:39:00,18.7,13.0,29.92,NNE,22,0.0,0.0,77,0.00,,,0.00,weatherlink.com 1.10,2013-03-17 09:39:00,
2013-03-17 05:54:00,19.6,12.0,29.92,NW,316,0.0,2.0,73,0.00,,,0.00,weatherlink.com 1.10,2013-03-17 09:54:00,
2013-03-17 06:09:00,20.3,12.0,29.92,NW,314,1.0,2.0,71,0.00,,,0.00,weatherlink.com 1.10,2013-03-17 10:09:00,
2013-03-17 06:24:00,20.2,12.0,29.92,NNW,328,1.0,3.0,71,0.00,,,0.00,weatherlink.com 1.10,2013-03-17 10:24:00,
2013-03-17 06:39:00,20.1,12.0,29.92,NNW,332,1.0,5.0,71,0.00,,,0.00,weatherlink.com 1.10,2013-03-17 10:39:00,
2013-03-17 06:54:00,20.0,12.0,29.93,North,352,1.0,4.0,71,0.00,,,0.00,weatherlink.com 1.10,2013-03-17 10:54:00,
2013-03-17 07:09:00,19.6,12.0,29.93,WNW,295,2.0,7.0,71,0.00,,,0.00,weatherlink.com 1.10,2013-03-17 11:09:00,
2013-03-17 07:24:00,19.4,12.0,29.95,NW,316,1.0,4.0,72,0.00,,,0.00,weatherlink.com 1.10,2013-03-17 11:24:00,
2013-03-17 07:39:00,19.4,12.0,29.96,NW,317,3.0,5.0,73,0.00,,,0.00,weatherlink.com 1.10,2013-03-17 11:39:00,
2013-03-17 07:55:00,19.5,12.0,29.98,NW,311,3.0,4.0,73,0.00,,,0.00,weatherlink.com 1.10,2013-03-17 11:55:00,
2013-03-17 08:10:00,19.9,13.0,29.99,NW,321,1.0,4.0,73,0.00,,,0.00,weatherlink.com 1.10,2013-03-17 12:10:00,
2013-03-17 08:25:00,20.5,12.0,30.00,NNW,332,2.0,4.0,71,0.00,,,0.00,weatherlink.com 1.10,2013-03-17 12:25:00,
2013-03-17 08:40:00,21.1,13.0,29.99,NNW,333,2.0,3.0,70,0.00,,,0.00,weatherlink.com 1.10,2013-03-17 12:40:00,
2013-03-17 08:55:00,21.9,12.0,29.99,NW,310,2.0,4.0,67,0.00,,,0.00,weatherlink.com 1.10,2013-03-17 12:55:00,
2013-03-17 09:10:00,22.7,12.0,29.99,NW,319,0.0,3.0,64,0.00,,,0.00,weatherlink.com 1.10,2013-03-17 13:10:00,
2013-03-17 09:25:00,23.2,11.0,29.99,North,360,2.0,8.0,60,0.00,,,0.00,weatherlink.com 1.10,2013-03-17 13:25:00,
2013-03-17 09:40:00,24.2,11.0,29.99,NNW,335,2.0,5.0,57,0.00,,,0.00,weatherlink.com 1.10,2013-03-17 13:40:00,
2013-03-17 09:55:00,24.6,11.0,30.00,North,357,3.0,6.0,56,0.00,,,0.00,weatherlink.com 1.10,2013-03-17 13:55:00,
2013-03-17 10:10:00,25.3,11.0,30.00,NW,311,2.0,5.0,56,0.00,,,0.00,weatherlink.com 1.10,2013-03-17 14:10:00,
2013-03-17 10:25:00,26.4,12.0,30.00,NW,319,2.0,9.0,55,0.00,,,0.00,weatherlink.com 1.10,2013-03-17 14:25:00,
2013-03-17 10:40:00,25.9,11.0,30.01,NW,311,3.0,7.0,53,0.00,,,0.00,weatherlink.com 1.10,2013-03-17 14:40:00,
2013-03-17 10:55:00,25.9,11.0,30.01,NW,325,4.0,9.0,53,0.00,,,0.00,weatherlink.com 1.10,2013-03-17 14:55:00,
2013-03-17 11:10:00,27.5,12.0,30.02,NNE,15,3.0,6.0,52,0.00,,,0.00,weatherlink.com 1.10,2013-03-17 15:10:00,
2013-03-17 11:25:00,27.8,11.0,30.02,ENE,74,3.0,9.0,49,0.00,,,0.00,weatherlink.com 1.10,2013-03-17 15:25:00,
2013-03-17 11:40:00,28.4,10.0,30.03,NW,309,1.0,10.0,46,0.00,,,0.00,weatherlink.com 1.10,2013-03-17 15:40:00,
2013-03-17 11:55:00,28.7,9.0,30.03,NNW,330,3.0,6.0,43,0.00,,,0.00,weatherlink.com 1.10,2013-03-17 15:55:00,
2013-03-17 12:10:00,28.9,8.0,30.02,WNW,288,3.0,5.0,41,0.00,,,0.00,weatherlink.com 1.10,2013-03-17 16:10:00,
2013-03-17 12:25:00,29.7,7.0,30.03,West,273,1.0,10.0,39,0.00,,,0.00,weatherlink.com 1.10,2013-03-17 16:25:00,
2013-03-17 12:40:00,29.8,4.0,30.03,WNW,300,8.0,15.0,34,0.00,,,0.00,weatherlink.com 1.10,2013-03-17 16:40:00,
2013-03-17 12:55:00,29.5,5.0,30.03,NNW,330,1.0,9.0,36,0.00,,,0.00,weatherlink.com 1.10,2013-03-17 16:55:00,
2013-03-17 13:10:00,29.2,5.0,30.03,West,259,3.0,9.0,36,0.00,,,0.00,weatherlink.com 1.10,2013-03-17 17:10:00,
2013-03-17 13:25:00,29.0,6.0,30.04,NNW,338,3.0,11.0,37,0.00,,,0.00,weatherlink.com 1.10,2013-03-17 17:25:00,
2013-03-17 13:40:00,28.0,4.0,30.04,North,9,4.0,11.0,36,0.00,,,0.00,weatherlink.com 1.10,2013-03-17 17:40:00,
2013-03-17 13:55:00,28.0,3.0,30.04,SSE,149,1.0,11.0,34,0.00,,,0.00,weatherlink.com 1.10,2013-03-17 17:55:00,
2013-03-17 14:10:00,28.7,4.0,30.04,WNW,295,2.0,10.0,35,0.00,,,0.00,weatherlink.com 1.10,2013-03-17 18:10:00,
2013-03-17 14:25:00,29.2,3.0,30.04,NNW,327,4.0,11.0,32,0.00,,,0.00,weatherlink.com 1.10,2013-03-17 18:25:00,
2013-03-17 14:40:00,29.8,4.0,30.04,NNW,337,6.0,12.0,33,0.00,,,0.00,weatherlink.com 1.10,2013-03-17 18:40:00,
2013-03-17 14:55:00,29.8,4.0,30.04,NNW,342,9.0,11.0,33,0.00,,,0.00,weatherlink.com 1.10,2013-03-17 18:55:00,
2013-03-17 15:10:00,29.0,2.0,30.05,NNW,343,8.0,12.0,32,0.00,,,0.00,weatherlink.com 1.10,2013-03-17 19:10:00,
2013-03-17 15:25:00,29.3,4.0,30.05,NNW,342,6.0,10.0,34,0.00,,,0.00,weatherlink.com 1.10,2013-03-17 19:25:00,
2013-03-17 15:40:00,28.9,3.0,30.06,NNW,348,3.0,9.0,33,0.00,,,0.00,weatherlink.com 1.10,2013-03-17 19:40:00,
2013-03-17 15:55:00,28.7,3.0,30.06,NE,47,5.0,13.0,33,0.00,,,0.00,weatherlink.com 1.10,2013-03-17 19:55:00,
2013-03-17 16:10:00,28.7,4.0,30.07,WNW,300,5.0,9.0,34,0.00,,,0.00,weatherlink.com 1.10,2013-03-17 20:10:00,
2013-03-17 16:25:00,28.8,4.0,30.07,SE,145,1.0,9.0,34,0.00,,,0.00,weatherlink.com 1.10,2013-03-17 20:25:00,
2013-03-17 16:40:00,28.5,4.0,30.08,NE,47,2.0,8.0,35,0.00,,,0.00,weatherlink.com 1.10,2013-03-17 20:40:00,
2013-03-17 16:55:00,28.2,4.0,30.08,NNE,30,4.0,13.0,36,0.00,,,0.00,weatherlink.com 1.10,2013-03-17 20:55:00,
2013-03-17 17:10:00,28.3,3.0,30.09,NNW,334,5.0,12.0,34,0.00,,,0.00,weatherlink.com 1.10,2013-03-17 21:10:00,
2013-03-17 17:25:00,28.1,5.0,30.10,NW,323,2.0,9.0,37,0.00,,,0.00,weatherlink.com 1.10,2013-03-17 21:25:00,
2013-03-17 17:40:00,27.5,4.0,30.11,WNW,293,3.0,12.0,37,0.00,,,0.00,weatherlink.com 1.10,2013-03-17 21:40:00,
2013-03-17 17:55:00,27.3,6.0,30.11,West,278,1.0,7.0,41,0.00,,,0.00,weatherlink.com 1.10,2013-03-17 21:55:00,
2013-03-17 18:10:00,26.9,5.0,30.12,NNW,335,5.0,8.0,39,0.00,,,0.00,weatherlink.com 1.10,2013-03-17 22:10:00,
2013-03-17 18:25:00,26.5,4.0,30.13,NW,325,4.0,8.0,38,0.00,,,0.00,weatherlink.com 1.10,2013-03-17 22:25:00,
2013-03-17 18:40:00,26.1,4.0,30.14,NNW,337,2.0,7.0,39,0.00,,,0.00,weatherlink.com 1.10,2013-03-17 22:40:00,
2013-03-17 18:56:00,25.7,5.0,30.15,NE,38,3.0,6.0,41,0.00,,,0.00,weatherlink.com 1.10,2013-03-17 22:56:00,
2013-03-17 19:11:00,25.3,4.0,30.16,North,4,1.0,8.0,40,0.00,,,0.00,weatherlink.com 1.10,2013-03-17 23:11:00,
2013-03-17 19:26:00,24.7,4.0,30.18,NNE,26,1.0,9.0,41,0.00,,,0.00,weatherlink.com 1.10,2013-03-17 23:26:00,
2013-03-17 19:41:00,24.4,3.0,30.18,NNW,334,2.0,7.0,40,0.00,,,0.00,weatherlink.com 1.10,2013-03-17 23:41:00,
2013-03-17 20:41:00,22.5,2.0,30.22,NE,53,0.0,3.0,41,0.00,,,0.00,weatherlink.com 1.10,2013-03-18 00:41:00,
2013-03-17 20:56:00,21.9,1.0,30.23,NE,39,0.0,3.0,41,0.00,,,0.00,weatherlink.com 1.10,2013-03-18 00:56:00,
2013-03-17 21:11:00,21.3,1.0,30.24,NNW,343,1.0,5.0,42,0.00,,,0.00,weatherlink.com 1.10,2013-03-18 01:11:00,
2013-03-17 21:26:00,21.1,1.0,30.25,North,4,0.0,3.0,42,0.00,,,0.00,weatherlink.com 1.10,2013-03-18 01:26:00,
2013-03-17 21:41:00,20.6,1.0,30.26,NNW,332,0.0,1.0,43,0.00,,,0.00,weatherlink.com 1.10,2013-03-18 01:41:00,
2013-03-17 21:56:00,20.1,1.0,30.26,NW,323,1.0,3.0,43,0.00,,,0.00,weatherlink.com 1.10,2013-03-18 01:56:00,
2013-03-17 22:11:00,20.1,0.0,30.27,NW,325,2.0,7.0,42,0.00,,,0.00,weatherlink.com 1.10,2013-03-18 02:11:00,
2013-03-17 22:26:00,19.7,0.0,30.28,NW,309,1.0,4.0,42,0.00,,,0.00,weatherlink.com 1.10,2013-03-18 02:26:00,
2013-03-17 22:41:00,19.5,0.0,30.28,NNW,342,3.0,8.0,42,0.00,,,0.00,weatherlink.com 1.10,2013-03-18 02:41:00,
2013-03-17 22:56:00,19.1,0.0,30.29,North,353,1.0,3.0,43,0.00,,,0.00,weatherlink.com 1.10,2013-03-18 02:56:00,
2013-03-17 23:11:00,18.6,0.0,30.29,North,353,1.0,4.0,44,0.00,,,0.00,weatherlink.com 1.10,2013-03-18 03:11:00,
2013-03-17 23:27:00,18.2,-1.0,30.30,NW,326,3.0,5.0,44,0.00,,,0.00,weatherlink.com 1.10,2013-03-18 03:27:00,
2013-03-17 23:42:00,18.0,-1.0,30.30,North,11,3.0,7.0,44,0.00,,,0.00,weatherlink.com 1.10,2013-03-18 03:42:00,
2013-03-17 23:57:00,17.7,0.0,30.30,NW,315,4.0,9.0,45,0.00,,,0.00,weatherlink.com 1.10,2013-03-18 03:57:00,